sensor_id;sensor_type;location;lat;lon;timestamp;pressure;altitude;pressure_sealevel;temperature;humidity
68941;BME280;55982;51.476;7.552;2023-04-22T00:02:08;99101.66;;;9.06;100.00
68941;BME280;55982;51.476;7.552;2023-04-22T00:04:34;99091.94;;;8.88;100.00
68941;BME280;55982;51.476;7.552;2023-04-22T00:07:00;99111.91;;;8.66;100.00
68941;BME280;55982;51.476;7.552;2023-04-22T00:09:25;99104.59;;;8.53;100.00
68941;BME280;55982;51.476;7.552;2023-04-22T00:11:51;99115.38;;;8.42;100.00
68941;BME280;55982;51.476;7.552;2023-04-22T00:14:17;99101.78;;;8.34;100.00
68941;BME280;55982;51.476;7.552;2023-04-22T00:16:42;99100.97;;;8.32;100.00
68941;BME280;55982;51.476;7.552;2023-04-22T00:19:07;99087.16;;;8.30;100.00
68941;BME280;55982;51.476;7.552;2023-04-22T00:21:33;99092.34;;;8.30;100.00
68941;BME280;55982;51.476;7.552;2023-04-22T00:23:58;99092.25;;;8.33;100.00
68941;BME280;55982;51.476;7.552;2023-04-22T00:26:24;99088.94;;;8.28;100.00
68941;BME280;55982;51.476;7.552;2023-04-22T00:28:49;99086.59;;;8.20;100.00
68941;BME280;55982;51.476;7.552;2023-04-22T00:31:14;99087.56;;;8.18;100.00
68941;BME280;55982;51.476;7.552;2023-04-22T00:33:40;99091.19;;;8.14;100.00
68941;BME280;55982;51.476;7.552;2023-04-22T00:36:06;99091.28;;;8.11;100.00
68941;BME280;55982;51.476;7.552;2023-04-22T00:38:31;99075.44;;;8.17;100.00
68941;BME280;55982;51.476;7.552;2023-04-22T00:40:57;99088.31;;;8.21;100.00
68941;BME280;55982;51.476;7.552;2023-04-22T00:43:23;99089.16;;;8.22;100.00
68941;BME280;55982;51.476;7.552;2023-04-22T00:45:48;99083.75;;;8.28;100.00
68941;BME280;55982;51.476;7.552;2023-04-22T00:48:14;99085.13;;;8.38;100.00
68941;BME280;55982;51.476;7.552;2023-04-22T00:50:40;99081.50;;;8.42;100.00
68941;BME280;55982;51.476;7.552;2023-04-22T00:53:05;99084.25;;;8.62;100.00
68941;BME280;55982;51.476;7.552;2023-04-22T00:55:31;99080.81;;;9.06;100.00
68941;BME280;55982;51.476;7.552;2023-04-22T00:57:57;99070.81;;;9.38;100.00
68941;BME280;55982;51.476;7.552;2023-04-22T01:00:25;99076.41;;;9.72;100.00
68941;BME280;55982;51.476;7.552;2023-04-22T01:02:53;99059.94;;;9.90;100.00
68941;BME280;55982;51.476;7.552;2023-04-22T01:05:18;99054.84;;;10.07;100.00
68941;BME280;55982;51.476;7.552;2023-04-22T01:07:44;99051.22;;;10.11;100.00
68941;BME280;55982;51.476;7.552;2023-04-22T01:10:10;99054.97;;;10.24;100.00
68941;BME280;55982;51.476;7.552;2023-04-22T01:12:35;99052.09;;;10.30;100.00
68941;BME280;55982;51.476;7.552;2023-04-22T01:15:01;99047.22;;;10.41;100.00
68941;BME280;55982;51.476;7.552;2023-04-22T01:17:27;99045.91;;;10.51;100.00
68941;BME280;55982;51.476;7.552;2023-04-22T01:19:53;99047.47;;;10.55;100.00
68941;BME280;55982;51.476;7.552;2023-04-22T01:22:20;99048.13;;;10.60;100.00
68941;BME280;55982;51.476;7.552;2023-04-22T01:24:45;99049.72;;;10.63;100.00
68941;BME280;55982;51.476;7.552;2023-04-22T01:27:11;99044.66;;;10.78;100.00
68941;BME280;55982;51.476;7.552;2023-04-22T01:29:37;99048.03;;;10.80;100.00
68941;BME280;55982;51.476;7.552;2023-04-22T01:32:03;99046.72;;;10.90;100.00
68941;BME280;55982;51.476;7.552;2023-04-22T01:34:30;99046.00;;;10.87;100.00
68941;BME280;55982;51.476;7.552;2023-04-22T01:36:55;99055.47;;;10.89;100.00
68941;BME280;55982;51.476;7.552;2023-04-22T01:39:21;99047.69;;;10.88;100.00
68941;BME280;55982;51.476;7.552;2023-04-22T01:41:47;99047.00;;;10.84;100.00
68941;BME280;55982;51.476;7.552;2023-04-22T01:44:13;99058.84;;;10.91;100.00
68941;BME280;55982;51.476;7.552;2023-04-22T01:46:38;99049.41;;;10.89;100.00
68941;BME280;55982;51.476;7.552;2023-04-22T01:49:03;99053.63;;;10.91;100.00
68941;BME280;55982;51.476;7.552;2023-04-22T01:51:29;99048.19;;;10.96;100.00
68941;BME280;55982;51.476;7.552;2023-04-22T01:53:56;99043.72;;;10.98;100.00
68941;BME280;55982;51.476;7.552;2023-04-22T01:56:21;99045.56;;;10.96;100.00
68941;BME280;55982;51.476;7.552;2023-04-22T01:58:47;99047.25;;;10.97;100.00
68941;BME280;55982;51.476;7.552;2023-04-22T02:01:12;99052.47;;;10.97;100.00
68941;BME280;55982;51.476;7.552;2023-04-22T02:03:38;99055.75;;;11.02;100.00
68941;BME280;55982;51.476;7.552;2023-04-22T02:06:04;99049.59;;;11.03;100.00
68941;BME280;55982;51.476;7.552;2023-04-22T02:08:29;99051.38;;;11.02;100.00
68941;BME280;55982;51.476;7.552;2023-04-22T02:10:55;99055.50;;;11.06;100.00
68941;BME280;55982;51.476;7.552;2023-04-22T02:13:21;99053.47;;;11.13;100.00
68941;BME280;55982;51.476;7.552;2023-04-22T02:15:47;99051.06;;;11.08;100.00
68941;BME280;55982;51.476;7.552;2023-04-22T02:18:12;99044.31;;;11.04;100.00
68941;BME280;55982;51.476;7.552;2023-04-22T02:20:38;99058.44;;;11.00;100.00
68941;BME280;55982;51.476;7.552;2023-04-22T02:23:03;99054.56;;;10.90;100.00
68941;BME280;55982;51.476;7.552;2023-04-22T02:25:29;99055.91;;;10.80;100.00
68941;BME280;55982;51.476;7.552;2023-04-22T02:27:56;99050.09;;;10.74;100.00
68941;BME280;55982;51.476;7.552;2023-04-22T02:30:21;99052.94;;;10.69;100.00
68941;BME280;55982;51.476;7.552;2023-04-22T02:32:47;99048.75;;;10.65;100.00
68941;BME280;55982;51.476;7.552;2023-04-22T02:35:12;99054.06;;;10.64;100.00
68941;BME280;55982;51.476;7.552;2023-04-22T02:37:38;99053.22;;;10.63;100.00
68941;BME280;55982;51.476;7.552;2023-04-22T02:40:04;99052.22;;;10.66;100.00
68941;BME280;55982;51.476;7.552;2023-04-22T02:42:31;99053.72;;;10.71;100.00
68941;BME280;55982;51.476;7.552;2023-04-22T02:44:57;99058.44;;;10.63;100.00
68941;BME280;55982;51.476;7.552;2023-04-22T02:47:22;99051.66;;;10.59;100.00
68941;BME280;55982;51.476;7.552;2023-04-22T02:49:47;99045.44;;;10.62;100.00
68941;BME280;55982;51.476;7.552;2023-04-22T02:52:13;99040.47;;;10.56;100.00
68941;BME280;55982;51.476;7.552;2023-04-22T02:54:38;99047.47;;;10.55;100.00
68941;BME280;55982;51.476;7.552;2023-04-22T02:57:04;99044.06;;;10.53;100.00
68941;BME280;55982;51.476;7.552;2023-04-22T02:59:30;99044.34;;;10.47;100.00
68941;BME280;55982;51.476;7.552;2023-04-22T03:01:56;99047.13;;;10.44;100.00
68941;BME280;55982;51.476;7.552;2023-04-22T03:04:21;99028.63;;;10.49;100.00
68941;BME280;55982;51.476;7.552;2023-04-22T03:06:49;99033.88;;;10.47;100.00
68941;BME280;55982;51.476;7.552;2023-04-22T03:09:14;99028.53;;;10.50;100.00
68941;BME280;55982;51.476;7.552;2023-04-22T03:11:41;99032.72;;;10.54;100.00
68941;BME280;55982;51.476;7.552;2023-04-22T03:14:06;99028.19;;;10.58;100.00
68941;BME280;55982;51.476;7.552;2023-04-22T03:16:32;99022.28;;;10.53;100.00
68941;BME280;55982;51.476;7.552;2023-04-22T03:18:57;99028.31;;;10.55;100.00
68941;BME280;55982;51.476;7.552;2023-04-22T03:21:22;99027.47;;;10.54;100.00
68941;BME280;55982;51.476;7.552;2023-04-22T03:23:48;99036.09;;;10.56;100.00
68941;BME280;55982;51.476;7.552;2023-04-22T03:26:13;99025.22;;;10.65;100.00
68941;BME280;55982;51.476;7.552;2023-04-22T03:28:38;99019.72;;;10.71;100.00
68941;BME280;55982;51.476;7.552;2023-04-22T03:31:04;99017.59;;;10.79;100.00
68941;BME280;55982;51.476;7.552;2023-04-22T03:33:30;99018.28;;;10.83;100.00
68941;BME280;55982;51.476;7.552;2023-04-22T03:35:55;99011.22;;;10.85;100.00
68941;BME280;55982;51.476;7.552;2023-04-22T03:38:20;99012.81;;;10.87;100.00
68941;BME280;55982;51.476;7.552;2023-04-22T03:40:46;99017.00;;;10.91;100.00
68941;BME280;55982;51.476;7.552;2023-04-22T03:43:11;99012.53;;;10.93;100.00
68941;BME280;55982;51.476;7.552;2023-04-22T03:45:37;99009.78;;;10.96;100.00
68941;BME280;55982;51.476;7.552;2023-04-22T03:48:02;99001.09;;;10.96;100.00
68941;BME280;55982;51.476;7.552;2023-04-22T03:50:28;99010.78;;;10.94;100.00
68941;BME280;55982;51.476;7.552;2023-04-22T03:52:53;99005.63;;;10.92;100.00
68941;BME280;55982;51.476;7.552;2023-04-22T03:55:18;99002.84;;;10.95;100.00
68941;BME280;55982;51.476;7.552;2023-04-22T03:57:44;99003.00;;;10.92;100.00
68941;BME280;55982;51.476;7.552;2023-04-22T04:00:10;98997.91;;;10.89;100.00
68941;BME280;55982;51.476;7.552;2023-04-22T04:02:36;98995.94;;;10.94;100.00
68941;BME280;55982;51.476;7.552;2023-04-22T04:05:01;98991.47;;;10.96;100.00
68941;BME280;55982;51.476;7.552;2023-04-22T04:07:26;98990.81;;;10.91;100.00
68941;BME280;55982;51.476;7.552;2023-04-22T04:09:52;98987.31;;;10.92;100.00
68941;BME280;55982;51.476;7.552;2023-04-22T04:12:17;98988.97;;;10.93;100.00
68941;BME280;55982;51.476;7.552;2023-04-22T04:14:42;98977.69;;;10.93;100.00
68941;BME280;55982;51.476;7.552;2023-04-22T04:17:08;98980.94;;;10.98;100.00
68941;BME280;55982;51.476;7.552;2023-04-22T04:19:34;98983.16;;;11.05;100.00
68941;BME280;55982;51.476;7.552;2023-04-22T04:22:00;98992.50;;;11.11;100.00
68941;BME280;55982;51.476;7.552;2023-04-22T04:24:25;98986.09;;;11.17;100.00
68941;BME280;55982;51.476;7.552;2023-04-22T04:26:51;98986.88;;;11.19;100.00
68941;BME280;55982;51.476;7.552;2023-04-22T04:29:17;98982.28;;;11.24;100.00
68941;BME280;55982;51.476;7.552;2023-04-22T04:31:44;98982.13;;;11.27;100.00
68941;BME280;55982;51.476;7.552;2023-04-22T04:34:09;98983.19;;;11.23;100.00
68941;BME280;55982;51.476;7.552;2023-04-22T04:36:35;98982.41;;;11.21;100.00
68941;BME280;55982;51.476;7.552;2023-04-22T04:39:00;98979.72;;;11.22;100.00
68941;BME280;55982;51.476;7.552;2023-04-22T04:41:26;98977.19;;;11.21;100.00
68941;BME280;55982;51.476;7.552;2023-04-22T04:43:52;98962.34;;;11.21;100.00
68941;BME280;55982;51.476;7.552;2023-04-22T04:46:17;98961.56;;;11.19;100.00
68941;BME280;55982;51.476;7.552;2023-04-22T04:48:44;98954.41;;;11.23;100.00
68941;BME280;55982;51.476;7.552;2023-04-22T04:51:10;98960.25;;;11.28;100.00
68941;BME280;55982;51.476;7.552;2023-04-22T04:53:36;98966.13;;;11.33;100.00
68941;BME280;55982;51.476;7.552;2023-04-22T04:56:02;98960.03;;;11.32;100.00
68941;BME280;55982;51.476;7.552;2023-04-22T04:58:28;98958.09;;;11.36;100.00
68941;BME280;55982;51.476;7.552;2023-04-22T05:00:53;98957.97;;;11.39;100.00
68941;BME280;55982;51.476;7.552;2023-04-22T05:03:18;98951.78;;;11.40;100.00
68941;BME280;55982;51.476;7.552;2023-04-22T05:05:44;98950.78;;;11.42;100.00
68941;BME280;55982;51.476;7.552;2023-04-22T05:08:12;98954.78;;;11.49;100.00
68941;BME280;55982;51.476;7.552;2023-04-22T05:10:37;98956.25;;;11.55;100.00
68941;BME280;55982;51.476;7.552;2023-04-22T05:13:03;98955.50;;;11.70;100.00
68941;BME280;55982;51.476;7.552;2023-04-22T05:15:28;98959.72;;;11.72;100.00
68941;BME280;55982;51.476;7.552;2023-04-22T05:17:54;98965.66;;;11.76;100.00
68941;BME280;55982;51.476;7.552;2023-04-22T05:20:19;98958.13;;;11.87;100.00
68941;BME280;55982;51.476;7.552;2023-04-22T05:22:45;98960.16;;;11.98;100.00
68941;BME280;55982;51.476;7.552;2023-04-22T05:25:10;98961.38;;;12.08;100.00
68941;BME280;55982;51.476;7.552;2023-04-22T05:27:36;98967.56;;;12.22;100.00
68941;BME280;55982;51.476;7.552;2023-04-22T05:30:02;98960.38;;;12.26;100.00
68941;BME280;55982;51.476;7.552;2023-04-22T05:32:27;98964.28;;;12.34;100.00
68941;BME280;55982;51.476;7.552;2023-04-22T05:34:52;98961.59;;;12.36;100.00
68941;BME280;55982;51.476;7.552;2023-04-22T05:37:18;98955.84;;;12.45;100.00
68941;BME280;55982;51.476;7.552;2023-04-22T05:39:43;98952.28;;;12.46;100.00
68941;BME280;55982;51.476;7.552;2023-04-22T05:42:08;98947.72;;;12.49;100.00
68941;BME280;55982;51.476;7.552;2023-04-22T05:44:34;98949.25;;;12.53;100.00
68941;BME280;55982;51.476;7.552;2023-04-22T05:47:00;98940.09;;;12.60;100.00
68941;BME280;55982;51.476;7.552;2023-04-22T05:49:25;98948.72;;;12.62;100.00
68941;BME280;55982;51.476;7.552;2023-04-22T05:51:50;98947.38;;;12.71;100.00
68941;BME280;55982;51.476;7.552;2023-04-22T05:54:16;98950.59;;;12.76;100.00
68941;BME280;55982;51.476;7.552;2023-04-22T05:56:41;98955.34;;;12.85;100.00
68941;BME280;55982;51.476;7.552;2023-04-22T05:59:07;98957.16;;;12.99;100.00
68941;BME280;55982;51.476;7.552;2023-04-22T06:01:32;98955.19;;;13.04;100.00
68941;BME280;55982;51.476;7.552;2023-04-22T06:03:58;98945.41;;;13.21;100.00
68941;BME280;55982;51.476;7.552;2023-04-22T06:06:23;98946.66;;;13.30;100.00
68941;BME280;55982;51.476;7.552;2023-04-22T06:08:48;98953.06;;;13.40;100.00
68941;BME280;55982;51.476;7.552;2023-04-22T06:11:14;98955.66;;;13.55;100.00
68941;BME280;55982;51.476;7.552;2023-04-22T06:13:39;98948.06;;;13.65;100.00
68941;BME280;55982;51.476;7.552;2023-04-22T06:16:05;98950.53;;;13.82;100.00
68941;BME280;55982;51.476;7.552;2023-04-22T06:18:31;98941.53;;;13.86;100.00
68941;BME280;55982;51.476;7.552;2023-04-22T06:20:56;98952.97;;;13.85;100.00
68941;BME280;55982;51.476;7.552;2023-04-22T06:23:22;98945.09;;;13.99;100.00
68941;BME280;55982;51.476;7.552;2023-04-22T06:25:47;98948.84;;;14.09;100.00
68941;BME280;55982;51.476;7.552;2023-04-22T06:28:12;98939.63;;;14.16;100.00
68941;BME280;55982;51.476;7.552;2023-04-22T06:30:38;98946.88;;;14.27;100.00
68941;BME280;55982;51.476;7.552;2023-04-22T06:33:03;98946.22;;;14.37;100.00
68941;BME280;55982;51.476;7.552;2023-04-22T06:35:29;98952.63;;;14.47;100.00
68941;BME280;55982;51.476;7.552;2023-04-22T06:37:54;98944.34;;;14.53;100.00
68941;BME280;55982;51.476;7.552;2023-04-22T06:40:20;98956.81;;;14.64;100.00
68941;BME280;55982;51.476;7.552;2023-04-22T06:42:45;98947.66;;;14.84;100.00
68941;BME280;55982;51.476;7.552;2023-04-22T06:45:10;98950.25;;;14.98;100.00
68941;BME280;55982;51.476;7.552;2023-04-22T06:47:39;98949.84;;;15.04;100.00
68941;BME280;55982;51.476;7.552;2023-04-22T06:50:07;98947.66;;;15.10;100.00
68941;BME280;55982;51.476;7.552;2023-04-22T06:52:32;98950.69;;;15.31;100.00
68941;BME280;55982;51.476;7.552;2023-04-22T06:54:58;98943.78;;;15.42;100.00
68941;BME280;55982;51.476;7.552;2023-04-22T06:57:23;98948.59;;;15.75;100.00
68941;BME280;55982;51.476;7.552;2023-04-22T06:59:49;98947.22;;;15.82;100.00
68941;BME280;55982;51.476;7.552;2023-04-22T07:02:15;98945.41;;;15.95;100.00
68941;BME280;55982;51.476;7.552;2023-04-22T07:04:40;98949.63;;;16.10;100.00
68941;BME280;55982;51.476;7.552;2023-04-22T07:07:05;98943.09;;;16.03;100.00
68941;BME280;55982;51.476;7.552;2023-04-22T07:09:31;98938.25;;;15.97;100.00
68941;BME280;55982;51.476;7.552;2023-04-22T07:11:57;98946.47;;;16.05;100.00
68941;BME280;55982;51.476;7.552;2023-04-22T07:14:24;98940.66;;;16.25;100.00
68941;BME280;55982;51.476;7.552;2023-04-22T07:16:50;98936.84;;;16.29;100.00
68941;BME280;55982;51.476;7.552;2023-04-22T07:19:15;98947.03;;;16.72;100.00
68941;BME280;55982;51.476;7.552;2023-04-22T07:21:41;98952.91;;;17.11;100.00
68941;BME280;55982;51.476;7.552;2023-04-22T07:24:06;98940.84;;;17.31;100.00
68941;BME280;55982;51.476;7.552;2023-04-22T07:26:36;98944.91;;;17.24;100.00
68941;BME280;55982;51.476;7.552;2023-04-22T07:29:02;98938.88;;;16.98;100.00
68941;BME280;55982;51.476;7.552;2023-04-22T07:31:27;98939.69;;;16.88;100.00
68941;BME280;55982;51.476;7.552;2023-04-22T07:33:53;98939.41;;;16.80;100.00
68941;BME280;55982;51.476;7.552;2023-04-22T07:36:18;98935.34;;;16.87;100.00
68941;BME280;55982;51.476;7.552;2023-04-22T07:38:44;98932.84;;;17.44;100.00
68941;BME280;55982;51.476;7.552;2023-04-22T07:41:09;98937.25;;;18.23;100.00
68941;BME280;55982;51.476;7.552;2023-04-22T07:43:34;98936.28;;;19.11;100.00
68941;BME280;55982;51.476;7.552;2023-04-22T07:46:00;98929.31;;;19.42;100.00
68941;BME280;55982;51.476;7.552;2023-04-22T07:48:25;98927.69;;;19.82;96.12
68941;BME280;55982;51.476;7.552;2023-04-22T07:50:51;98935.63;;;20.24;94.04
68941;BME280;55982;51.476;7.552;2023-04-22T07:53:16;98936.31;;;20.26;86.10
68941;BME280;55982;51.476;7.552;2023-04-22T07:55:42;98935.63;;;20.24;84.27
68941;BME280;55982;51.476;7.552;2023-04-22T07:58:07;98926.34;;;20.98;82.15
68941;BME280;55982;51.476;7.552;2023-04-22T08:00:33;98930.19;;;21.24;76.42
68941;BME280;55982;51.476;7.552;2023-04-22T08:02:59;98926.81;;;21.50;71.17
68941;BME280;55982;51.476;7.552;2023-04-22T08:05:25;98914.91;;;22.29;73.28
68941;BME280;55982;51.476;7.552;2023-04-22T08:07:50;98918.09;;;21.87;67.78
68941;BME280;55982;51.476;7.552;2023-04-22T08:10:16;98912.06;;;22.31;66.08
68941;BME280;55982;51.476;7.552;2023-04-22T08:12:41;98904.91;;;21.95;63.62
68941;BME280;55982;51.476;7.552;2023-04-22T08:15:07;98916.19;;;22.52;63.93
68941;BME280;55982;51.476;7.552;2023-04-22T08:17:33;98903.22;;;23.12;63.78
68941;BME280;55982;51.476;7.552;2023-04-22T08:19:58;98902.09;;;23.14;63.01
68941;BME280;55982;51.476;7.552;2023-04-22T08:22:23;98901.78;;;23.17;62.05
68941;BME280;55982;51.476;7.552;2023-04-22T08:24:49;98904.81;;;22.87;60.20
68941;BME280;55982;51.476;7.552;2023-04-22T08:27:15;98909.19;;;22.61;61.18
68941;BME280;55982;51.476;7.552;2023-04-22T08:29:40;98904.09;;;22.31;62.08
68941;BME280;55982;51.476;7.552;2023-04-22T08:32:05;98896.16;;;22.12;64.16
68941;BME280;55982;51.476;7.552;2023-04-22T08:34:31;98897.75;;;22.05;64.01
68941;BME280;55982;51.476;7.552;2023-04-22T08:36:57;98905.72;;;22.78;62.22
68941;BME280;55982;51.476;7.552;2023-04-22T08:39:22;98904.03;;;23.39;59.36
68941;BME280;55982;51.476;7.552;2023-04-22T08:41:49;98900.25;;;22.97;60.58
68941;BME280;55982;51.476;7.552;2023-04-22T08:44:15;98891.09;;;22.82;58.91
68941;BME280;55982;51.476;7.552;2023-04-22T08:46:42;98892.22;;;23.68;56.82
68941;BME280;55982;51.476;7.552;2023-04-22T08:49:13;98893.53;;;23.63;55.31
68941;BME280;55982;51.476;7.552;2023-04-22T08:51:39;98901.88;;;23.43;56.22
68941;BME280;55982;51.476;7.552;2023-04-22T08:54:05;98897.19;;;23.27;57.37
68941;BME280;55982;51.476;7.552;2023-04-22T08:56:30;98876.03;;;22.27;59.00
68941;BME280;55982;51.476;7.552;2023-04-22T08:58:56;98879.50;;;22.91;59.15
68941;BME280;55982;51.476;7.552;2023-04-22T09:01:23;98874.13;;;23.36;56.83
68941;BME280;55982;51.476;7.552;2023-04-22T09:03:49;98877.63;;;23.36;56.84
68941;BME280;55982;51.476;7.552;2023-04-22T09:06:16;98878.41;;;23.72;56.43
68941;BME280;55982;51.476;7.552;2023-04-22T09:08:43;98876.88;;;24.13;54.15
68941;BME280;55982;51.476;7.552;2023-04-22T09:11:09;98867.16;;;24.12;56.46
68941;BME280;55982;51.476;7.552;2023-04-22T09:13:36;98860.28;;;23.58;55.55
68941;BME280;55982;51.476;7.552;2023-04-22T09:16:02;98868.03;;;23.43;55.36
68941;BME280;55982;51.476;7.552;2023-04-22T09:18:27;98867.16;;;23.60;54.90
68941;BME280;55982;51.476;7.552;2023-04-22T09:20:54;98871.59;;;23.78;55.09
68941;BME280;55982;51.476;7.552;2023-04-22T09:23:21;98878.16;;;23.83;54.66
68941;BME280;55982;51.476;7.552;2023-04-22T09:25:46;98868.31;;;23.84;54.52
68941;BME280;55982;51.476;7.552;2023-04-22T09:28:16;98859.53;;;23.30;54.10
68941;BME280;55982;51.476;7.552;2023-04-22T09:30:43;98857.69;;;23.48;56.19
68941;BME280;55982;51.476;7.552;2023-04-22T09:33:10;98856.75;;;23.57;55.27
68941;BME280;55982;51.476;7.552;2023-04-22T09:35:39;98854.22;;;22.95;55.42
68941;BME280;55982;51.476;7.552;2023-04-22T09:38:10;98861.66;;;22.74;57.16
68941;BME280;55982;51.476;7.552;2023-04-22T09:40:40;98859.81;;;22.57;57.42
68941;BME280;55982;51.476;7.552;2023-04-22T09:43:07;98839.31;;;22.75;56.40
68941;BME280;55982;51.476;7.552;2023-04-22T09:45:37;98841.69;;;23.48;56.07
68941;BME280;55982;51.476;7.552;2023-04-22T09:48:14;98851.31;;;24.60;54.68
68941;BME280;55982;51.476;7.552;2023-04-22T09:50:46;98847.72;;;24.77;53.82
68941;BME280;55982;51.476;7.552;2023-04-22T09:53:14;98847.78;;;25.09;53.17
68941;BME280;55982;51.476;7.552;2023-04-22T09:55:43;98850.16;;;25.20;51.60
68941;BME280;55982;51.476;7.552;2023-04-22T09:58:12;98841.69;;;25.96;51.31
68941;BME280;55982;51.476;7.552;2023-04-22T10:00:42;98844.41;;;25.88;50.71
68941;BME280;55982;51.476;7.552;2023-04-22T10:03:07;98839.41;;;24.46;49.53
68941;BME280;55982;51.476;7.552;2023-04-22T10:05:34;98827.53;;;25.07;49.09
68941;BME280;55982;51.476;7.552;2023-04-22T10:08:05;98836.25;;;25.33;51.83
68941;BME280;55982;51.476;7.552;2023-04-22T10:10:32;98820.31;;;24.99;49.45
68941;BME280;55982;51.476;7.552;2023-04-22T10:12:58;98811.13;;;24.94;51.72
68941;BME280;55982;51.476;7.552;2023-04-22T10:15:25;98815.66;;;25.17;50.37
68941;BME280;55982;51.476;7.552;2023-04-22T10:17:52;98815.28;;;24.88;49.55
68941;BME280;55982;51.476;7.552;2023-04-22T10:20:19;98816.34;;;25.35;48.61
68941;BME280;55982;51.476;7.552;2023-04-22T10:22:46;98805.38;;;24.65;51.69
68941;BME280;55982;51.476;7.552;2023-04-22T10:25:24;98800.19;;;24.71;49.36
68941;BME280;55982;51.476;7.552;2023-04-22T10:28:03;98809.13;;;24.96;47.34
68941;BME280;55982;51.476;7.552;2023-04-22T10:30:30;98815.97;;;25.22;46.29
68941;BME280;55982;51.476;7.552;2023-04-22T10:36:15;98814.00;;;25.57;44.79
68941;BME280;55982;51.476;7.552;2023-04-22T10:41:31;98806.28;;;25.37;45.52
68941;BME280;55982;51.476;7.552;2023-04-22T10:43:58;98809.03;;;26.08;46.43
68941;BME280;55982;51.476;7.552;2023-04-22T10:46:54;98802.47;;;27.26;44.83
68941;BME280;55982;51.476;7.552;2023-04-22T10:49:23;98812.44;;;26.94;44.30
68941;BME280;55982;51.476;7.552;2023-04-22T10:51:57;98803.25;;;24.92;45.94
68941;BME280;55982;51.476;7.552;2023-04-22T10:57:10;98806.16;;;24.49;49.00
68941;BME280;55982;51.476;7.552;2023-04-22T10:59:50;98800.19;;;24.55;49.25
68941;BME280;55982;51.476;7.552;2023-04-22T11:02:17;98788.97;;;24.10;49.58
68941;BME280;55982;51.476;7.552;2023-04-22T11:04:43;98793.91;;;25.45;48.79
68941;BME280;55982;51.476;7.552;2023-04-22T11:07:12;98799.69;;;26.96;46.16
68941;BME280;55982;51.476;7.552;2023-04-22T11:09:39;98777.47;;;27.25;45.08
68941;BME280;55982;51.476;7.552;2023-04-22T11:12:40;98784.94;;;26.70;44.17
68941;BME280;55982;51.476;7.552;2023-04-22T11:15:16;98782.03;;;26.02;46.52
68941;BME280;55982;51.476;7.552;2023-04-22T11:17:46;98789.91;;;25.41;46.79
68941;BME280;55982;51.476;7.552;2023-04-22T11:20:13;98787.88;;;25.51;47.38
68941;BME280;55982;51.476;7.552;2023-04-22T11:22:52;98787.56;;;24.89;48.04
68941;BME280;55982;51.476;7.552;2023-04-22T11:25:18;98790.97;;;24.08;48.86
68941;BME280;55982;51.476;7.552;2023-04-22T11:27:45;98800.34;;;24.12;50.43
68941;BME280;55982;51.476;7.552;2023-04-22T11:30:18;98783.13;;;23.81;50.50
68941;BME280;55982;51.476;7.552;2023-04-22T11:32:46;98790.69;;;23.59;50.53
68941;BME280;55982;51.476;7.552;2023-04-22T11:35:20;98798.13;;;23.74;51.01
68941;BME280;55982;51.476;7.552;2023-04-22T11:38:15;98789.44;;;23.72;50.95
68941;BME280;55982;51.476;7.552;2023-04-22T11:40:41;98793.56;;;23.92;52.62
68941;BME280;55982;51.476;7.552;2023-04-22T11:43:08;98792.16;;;23.80;51.23
68941;BME280;55982;51.476;7.552;2023-04-22T11:45:36;98795.09;;;24.44;50.50
68941;BME280;55982;51.476;7.552;2023-04-22T11:48:04;98798.25;;;24.97;50.21
68941;BME280;55982;51.476;7.552;2023-04-22T11:50:32;98797.59;;;24.95;51.49
68941;BME280;55982;51.476;7.552;2023-04-22T11:52:59;98792.88;;;25.05;49.81
68941;BME280;55982;51.476;7.552;2023-04-22T11:55:29;98794.22;;;24.77;50.38
68941;BME280;55982;51.476;7.552;2023-04-22T11:58:17;98788.88;;;25.01;50.07
68941;BME280;55982;51.476;7.552;2023-04-22T12:00:48;98787.97;;;24.69;50.25
68941;BME280;55982;51.476;7.552;2023-04-22T12:05:57;98789.03;;;23.92;51.76
68941;BME280;55982;51.476;7.552;2023-04-22T12:08:25;98789.41;;;25.05;49.92
68941;BME280;55982;51.476;7.552;2023-04-22T12:10:53;98782.53;;;25.59;49.96
68941;BME280;55982;51.476;7.552;2023-04-22T12:13:24;98787.53;;;25.37;48.83
68941;BME280;55982;51.476;7.552;2023-04-22T12:16:13;98796.25;;;24.91;48.50
68941;BME280;55982;51.476;7.552;2023-04-22T12:18:40;98785.09;;;24.46;50.24
68941;BME280;55982;51.476;7.552;2023-04-22T12:23:46;98791.31;;;24.05;51.06
68941;BME280;55982;51.476;7.552;2023-04-22T12:26:12;98797.81;;;24.02;51.44
68941;BME280;55982;51.476;7.552;2023-04-22T12:28:42;98798.38;;;24.22;51.05
68941;BME280;55982;51.476;7.552;2023-04-22T12:31:08;98800.63;;;25.49;50.60
68941;BME280;55982;51.476;7.552;2023-04-22T12:33:36;98786.41;;;26.72;47.89
68941;BME280;55982;51.476;7.552;2023-04-22T12:36:02;98788.63;;;25.91;47.48
68941;BME280;55982;51.476;7.552;2023-04-22T12:38:28;98777.44;;;24.67;49.79
68941;BME280;55982;51.476;7.552;2023-04-22T12:40:54;98791.81;;;23.83;51.37
68941;BME280;55982;51.476;7.552;2023-04-22T12:43:19;98781.91;;;23.41;52.60
68941;BME280;55982;51.476;7.552;2023-04-22T12:45:45;98785.09;;;23.27;53.47
68941;BME280;55982;51.476;7.552;2023-04-22T12:48:10;98795.22;;;25.24;51.82
68941;BME280;55982;51.476;7.552;2023-04-22T12:50:36;98786.22;;;25.33;50.10
68941;BME280;55982;51.476;7.552;2023-04-22T12:53:01;98792.72;;;24.83;49.99
68941;BME280;55982;51.476;7.552;2023-04-22T12:55:27;98795.75;;;25.20;49.65
68941;BME280;55982;51.476;7.552;2023-04-22T12:57:52;98792.91;;;25.21;48.67
68941;BME280;55982;51.476;7.552;2023-04-22T13:00:18;98790.88;;;25.15;49.72
68941;BME280;55982;51.476;7.552;2023-04-22T13:02:45;98787.19;;;23.93;51.73
68941;BME280;55982;51.476;7.552;2023-04-22T13:05:11;98795.94;;;23.43;53.10
68941;BME280;55982;51.476;7.552;2023-04-22T13:07:38;98795.34;;;23.14;52.94